sensor_id;sensor_type;location;lat;lon;timestamp;P1;durP1;ratioP1;P2;durP2;ratioP2
24435;SDS011;12616;52.470;13.436;2023-02-28T00:00:20;6.78;;;4.97;;
24435;SDS011;12616;52.470;13.436;2023-02-28T00:02:47;12.13;;;5.90;;
24435;SDS011;12616;52.470;13.436;2023-02-28T00:05:16;7.40;;;4.97;;
24435;SDS011;12616;52.470;13.436;2023-02-28T00:07:44;5.05;;;4.32;;
24435;SDS011;12616;52.470;13.436;2023-02-28T00:10:12;4.63;;;4.22;;
24435;SDS011;12616;52.470;13.436;2023-02-28T00:12:40;7.95;;;4.30;;
24435;SDS011;12616;52.470;13.436;2023-02-28T00:15:09;5.43;;;3.90;;
24435;SDS011;12616;52.470;13.436;2023-02-28T00:17:38;5.50;;;3.90;;
24435;SDS011;12616;52.470;13.436;2023-02-28T00:20:05;4.68;;;4.18;;
24435;SDS011;12616;52.470;13.436;2023-02-28T00:22:35;4.22;;;3.20;;
24435;SDS011;12616;52.470;13.436;2023-02-28T00:25:02;5.63;;;3.67;;
24435;SDS011;12616;52.470;13.436;2023-02-28T00:27:30;4.50;;;3.90;;
24435;SDS011;12616;52.470;13.436;2023-02-28T00:29:56;7.50;;;3.78;;
24435;SDS011;12616;52.470;13.436;2023-02-28T00:32:25;5.60;;;4.00;;
24435;SDS011;12616;52.470;13.436;2023-02-28T00:34:52;4.50;;;3.92;;
24435;SDS011;12616;52.470;13.436;2023-02-28T00:37:18;5.22;;;4.72;;
24435;SDS011;12616;52.470;13.436;2023-02-28T00:39:45;5.05;;;4.45;;
24435;SDS011;12616;52.470;13.436;2023-02-28T00:42:12;6.25;;;4.68;;
24435;SDS011;12616;52.470;13.436;2023-02-28T00:44:39;5.50;;;4.97;;
24435;SDS011;12616;52.470;13.436;2023-02-28T00:47:06;4.68;;;4.25;;
24435;SDS011;12616;52.470;13.436;2023-02-28T00:49:34;7.38;;;5.13;;
24435;SDS011;12616;52.470;13.436;2023-02-28T00:52:01;8.23;;;4.85;;
24435;SDS011;12616;52.470;13.436;2023-02-28T00:54:28;10.65;;;5.50;;
24435;SDS011;12616;52.470;13.436;2023-02-28T00:56:55;7.65;;;4.85;;
24435;SDS011;12616;52.470;13.436;2023-02-28T00:59:22;9.57;;;5.20;;
24435;SDS011;12616;52.470;13.436;2023-02-28T01:01:48;8.35;;;4.47;;
24435;SDS011;12616;52.470;13.436;2023-02-28T01:04:15;7.93;;;4.25;;
24435;SDS011;12616;52.470;13.436;2023-02-28T01:06:44;8.45;;;5.88;;
24435;SDS011;12616;52.470;13.436;2023-02-28T01:09:11;6.10;;;5.05;;
24435;SDS011;12616;52.470;13.436;2023-02-28T01:11:38;8.15;;;4.88;;
24435;SDS011;12616;52.470;13.436;2023-02-28T01:14:06;6.00;;;4.45;;
24435;SDS011;12616;52.470;13.436;2023-02-28T01:16:34;6.97;;;5.25;;
24435;SDS011;12616;52.470;13.436;2023-02-28T01:19:01;10.10;;;5.03;;
24435;SDS011;12616;52.470;13.436;2023-02-28T01:21:27;6.70;;;4.68;;
24435;SDS011;12616;52.470;13.436;2023-02-28T01:23:57;6.82;;;5.35;;
24435;SDS011;12616;52.470;13.436;2023-02-28T01:26:24;7.45;;;5.82;;
24435;SDS011;12616;52.470;13.436;2023-02-28T01:28:51;7.70;;;5.40;;
24435;SDS011;12616;52.470;13.436;2023-02-28T01:31:19;9.57;;;5.82;;
24435;SDS011;12616;52.470;13.436;2023-02-28T01:33:47;8.15;;;4.93;;
24435;SDS011;12616;52.470;13.436;2023-02-28T01:36:15;5.82;;;4.60;;
24435;SDS011;12616;52.470;13.436;2023-02-28T01:38:43;10.93;;;4.80;;
24435;SDS011;12616;52.470;13.436;2023-02-28T01:41:14;6.22;;;5.53;;
24435;SDS011;12616;52.470;13.436;2023-02-28T01:43:57;7.53;;;5.55;;
24435;SDS011;12616;52.470;13.436;2023-02-28T01:46:28;6.97;;;4.90;;
24435;SDS011;12616;52.470;13.436;2023-02-28T01:48:56;6.25;;;5.47;;
24435;SDS011;12616;52.470;13.436;2023-02-28T01:51:28;6.30;;;4.63;;
24435;SDS011;12616;52.470;13.436;2023-02-28T01:53:58;5.70;;;4.80;;
24435;SDS011;12616;52.470;13.436;2023-02-28T01:56:29;5.70;;;4.70;;
24435;SDS011;12616;52.470;13.436;2023-02-28T01:58:59;6.07;;;5.45;;
24435;SDS011;12616;52.470;13.436;2023-02-28T02:01:26;6.43;;;5.45;;
24435;SDS011;12616;52.470;13.436;2023-02-28T02:03:55;6.60;;;5.55;;
24435;SDS011;12616;52.470;13.436;2023-02-28T02:06:24;7.88;;;5.72;;
24435;SDS011;12616;52.470;13.436;2023-02-28T02:08:54;7.32;;;5.70;;
24435;SDS011;12616;52.470;13.436;2023-02-28T02:11:22;7.13;;;4.53;;
24435;SDS011;12616;52.470;13.436;2023-02-28T02:13:55;8.60;;;6.43;;
24435;SDS011;12616;52.470;13.436;2023-02-28T02:16:39;6.00;;;4.85;;
24435;SDS011;12616;52.470;13.436;2023-02-28T02:19:22;8.68;;;5.30;;
24435;SDS011;12616;52.470;13.436;2023-02-28T02:22:21;6.07;;;4.95;;
24435;SDS011;12616;52.470;13.436;2023-02-28T02:25:15;6.10;;;4.55;;
24435;SDS011;12616;52.470;13.436;2023-02-28T02:27:57;9.18;;;6.05;;
24435;SDS011;12616;52.470;13.436;2023-02-28T02:34:18;5.72;;;5.20;;
24435;SDS011;12616;52.470;13.436;2023-02-28T02:37:08;5.60;;;4.78;;
24435;SDS011;12616;52.470;13.436;2023-02-28T02:39:40;7.93;;;5.45;;
24435;SDS011;12616;52.470;13.436;2023-02-28T02:42:15;6.22;;;4.75;;
24435;SDS011;12616;52.470;13.436;2023-02-28T02:44:47;5.60;;;5.03;;
24435;SDS011;12616;52.470;13.436;2023-02-28T02:47:19;6.03;;;5.40;;
24435;SDS011;12616;52.470;13.436;2023-02-28T02:49:52;6.85;;;5.57;;
24435;SDS011;12616;52.470;13.436;2023-02-28T02:52:23;5.85;;;5.00;;
24435;SDS011;12616;52.470;13.436;2023-02-28T02:54:55;8.82;;;5.75;;
24435;SDS011;12616;52.470;13.436;2023-02-28T02:57:24;5.72;;;5.07;;
24435;SDS011;12616;52.470;13.436;2023-02-28T02:59:56;6.13;;;5.15;;
24435;SDS011;12616;52.470;13.436;2023-02-28T03:02:25;8.65;;;5.55;;
24435;SDS011;12616;52.470;13.436;2023-02-28T03:05:01;6.00;;;5.40;;
24435;SDS011;12616;52.470;13.436;2023-02-28T03:07:32;9.23;;;5.47;;
24435;SDS011;12616;52.470;13.436;2023-02-28T03:09:59;7.85;;;5.20;;
24435;SDS011;12616;52.470;13.436;2023-02-28T03:12:31;14.60;;;6.43;;
24435;SDS011;12616;52.470;13.436;2023-02-28T03:15:05;7.93;;;6.10;;
24435;SDS011;12616;52.470;13.436;2023-02-28T03:20:32;8.52;;;5.72;;
24435;SDS011;12616;52.470;13.436;2023-02-28T03:23:08;6.97;;;5.55;;
24435;SDS011;12616;52.470;13.436;2023-02-28T03:25:44;5.80;;;4.82;;
24435;SDS011;12616;52.470;13.436;2023-02-28T03:28:21;7.38;;;5.15;;
24435;SDS011;12616;52.470;13.436;2023-02-28T03:30:56;10.48;;;6.90;;
24435;SDS011;12616;52.470;13.436;2023-02-28T03:33:30;7.85;;;6.00;;
24435;SDS011;12616;52.470;13.436;2023-02-28T03:36:04;8.07;;;5.60;;
24435;SDS011;12616;52.470;13.436;2023-02-28T03:38:35;6.80;;;6.10;;
24435;SDS011;12616;52.470;13.436;2023-02-28T03:41:09;6.45;;;5.47;;
24435;SDS011;12616;52.470;13.436;2023-02-28T03:43:40;10.68;;;5.55;;
24435;SDS011;12616;52.470;13.436;2023-02-28T03:46:11;6.47;;;5.20;;
24435;SDS011;12616;52.470;13.436;2023-02-28T03:48:40;6.80;;;5.30;;
24435;SDS011;12616;52.470;13.436;2023-02-28T03:51:12;7.50;;;5.50;;
24435;SDS011;12616;52.470;13.436;2023-02-28T03:53:44;6.20;;;5.18;;
24435;SDS011;12616;52.470;13.436;2023-02-28T03:56:13;8.68;;;6.10;;
24435;SDS011;12616;52.470;13.436;2023-02-28T03:58:45;6.43;;;5.60;;
24435;SDS011;12616;52.470;13.436;2023-02-28T04:01:19;8.30;;;5.95;;
24435;SDS011;12616;52.470;13.436;2023-02-28T04:03:49;6.57;;;5.00;;
24435;SDS011;12616;52.470;13.436;2023-02-28T04:06:18;8.43;;;6.45;;
24435;SDS011;12616;52.470;13.436;2023-02-28T04:08:46;10.27;;;7.00;;
24435;SDS011;12616;52.470;13.436;2023-02-28T04:11:17;5.45;;;4.93;;
24435;SDS011;12616;52.470;13.436;2023-02-28T04:13:47;7.90;;;6.55;;
24435;SDS011;12616;52.470;13.436;2023-02-28T04:16:14;8.07;;;5.85;;
24435;SDS011;12616;52.470;13.436;2023-02-28T04:18:41;6.38;;;5.25;;
24435;SDS011;12616;52.470;13.436;2023-02-28T04:21:09;6.60;;;5.47;;
24435;SDS011;12616;52.470;13.436;2023-02-28T04:23:38;7.47;;;5.70;;
24435;SDS011;12616;52.470;13.436;2023-02-28T04:26:05;6.55;;;5.15;;
24435;SDS011;12616;52.470;13.436;2023-02-28T04:28:32;7.43;;;5.10;;
24435;SDS011;12616;52.470;13.436;2023-02-28T04:30:59;7.47;;;5.90;;
24435;SDS011;12616;52.470;13.436;2023-02-28T04:33:28;5.18;;;4.68;;
24435;SDS011;12616;52.470;13.436;2023-02-28T04:35:59;8.30;;;6.38;;
24435;SDS011;12616;52.470;13.436;2023-02-28T04:38:27;9.00;;;6.88;;
24435;SDS011;12616;52.470;13.436;2023-02-28T04:40:57;6.28;;;5.68;;
24435;SDS011;12616;52.470;13.436;2023-02-28T04:43:25;7.05;;;5.50;;
24435;SDS011;12616;52.470;13.436;2023-02-28T04:45:53;12.50;;;7.78;;
24435;SDS011;12616;52.470;13.436;2023-02-28T04:48:21;9.95;;;7.28;;
24435;SDS011;12616;52.470;13.436;2023-02-28T04:50:48;9.23;;;6.95;;
24435;SDS011;12616;52.470;13.436;2023-02-28T04:53:15;7.18;;;6.20;;
24435;SDS011;12616;52.470;13.436;2023-02-28T04:55:42;8.45;;;6.57;;
24435;SDS011;12616;52.470;13.436;2023-02-28T04:58:10;11.07;;;6.50;;
24435;SDS011;12616;52.470;13.436;2023-02-28T05:00:38;10.18;;;6.47;;
24435;SDS011;12616;52.470;13.436;2023-02-28T05:03:04;10.70;;;5.90;;
24435;SDS011;12616;52.470;13.436;2023-02-28T05:05:31;9.75;;;6.55;;
24435;SDS011;12616;52.470;13.436;2023-02-28T05:07:58;8.70;;;7.00;;
24435;SDS011;12616;52.470;13.436;2023-02-28T05:10:25;6.80;;;6.15;;
24435;SDS011;12616;52.470;13.436;2023-02-28T05:12:52;8.95;;;6.25;;
24435;SDS011;12616;52.470;13.436;2023-02-28T05:15:20;7.05;;;6.30;;
24435;SDS011;12616;52.470;13.436;2023-02-28T05:17:47;7.20;;;6.50;;
24435;SDS011;12616;52.470;13.436;2023-02-28T05:20:14;11.40;;;6.78;;
24435;SDS011;12616;52.470;13.436;2023-02-28T05:22:42;9.23;;;6.72;;
24435;SDS011;12616;52.470;13.436;2023-02-28T05:25:10;8.98;;;6.20;;
24435;SDS011;12616;52.470;13.436;2023-02-28T05:27:40;8.32;;;6.38;;
24435;SDS011;12616;52.470;13.436;2023-02-28T05:30:07;9.43;;;7.35;;
24435;SDS011;12616;52.470;13.436;2023-02-28T05:32:37;13.60;;;11.43;;
24435;SDS011;12616;52.470;13.436;2023-02-28T05:35:08;12.38;;;7.15;;
24435;SDS011;12616;52.470;13.436;2023-02-28T05:37:36;11.13;;;6.95;;
24435;SDS011;12616;52.470;13.436;2023-02-28T05:40:04;9.88;;;7.20;;
24435;SDS011;12616;52.470;13.436;2023-02-28T05:42:35;8.80;;;7.60;;
24435;SDS011;12616;52.470;13.436;2023-02-28T05:45:02;10.45;;;6.93;;
24435;SDS011;12616;52.470;13.436;2023-02-28T05:47:29;7.20;;;6.15;;
24435;SDS011;12616;52.470;13.436;2023-02-28T05:49:57;9.05;;;6.68;;
24435;SDS011;12616;52.470;13.436;2023-02-28T05:52:25;10.85;;;5.75;;
24435;SDS011;12616;52.470;13.436;2023-02-28T05:54:51;7.68;;;6.05;;
24435;SDS011;12616;52.470;13.436;2023-02-28T05:57:18;10.77;;;8.05;;
24435;SDS011;12616;52.470;13.436;2023-02-28T05:59:45;10.30;;;7.28;;
24435;SDS011;12616;52.470;13.436;2023-02-28T06:02:12;8.52;;;6.80;;
24435;SDS011;12616;52.470;13.436;2023-02-28T06:04:41;9.63;;;6.93;;
24435;SDS011;12616;52.470;13.436;2023-02-28T06:07:10;11.73;;;7.00;;
24435;SDS011;12616;52.470;13.436;2023-02-28T06:09:37;8.95;;;6.80;;
24435;SDS011;12616;52.470;13.436;2023-02-28T06:12:05;11.13;;;6.88;;
24435;SDS011;12616;52.470;13.436;2023-02-28T06:14:35;10.65;;;6.30;;
24435;SDS011;12616;52.470;13.436;2023-02-28T06:17:02;10.45;;;7.97;;
24435;SDS011;12616;52.470;13.436;2023-02-28T06:19:29;7.38;;;6.60;;
24435;SDS011;12616;52.470;13.436;2023-02-28T06:21:56;12.40;;;6.47;;
24435;SDS011;12616;52.470;13.436;2023-02-28T06:24:26;15.05;;;7.72;;
24435;SDS011;12616;52.470;13.436;2023-02-28T06:26:54;7.22;;;6.47;;
24435;SDS011;12616;52.470;13.436;2023-02-28T06:29:23;13.45;;;7.00;;
24435;SDS011;12616;52.470;13.436;2023-02-28T06:31:50;8.90;;;6.68;;
24435;SDS011;12616;52.470;13.436;2023-02-28T06:34:17;12.10;;;8.40;;
24435;SDS011;12616;52.470;13.436;2023-02-28T06:36:44;7.72;;;6.07;;
24435;SDS011;12616;52.470;13.436;2023-02-28T06:39:11;9.18;;;7.50;;
24435;SDS011;12616;52.470;13.436;2023-02-28T06:41:39;11.13;;;6.70;;
24435;SDS011;12616;52.470;13.436;2023-02-28T06:44:09;18.65;;;10.32;;
24435;SDS011;12616;52.470;13.436;2023-02-28T06:46:41;11.00;;;7.45;;
24435;SDS011;12616;52.470;13.436;2023-02-28T06:49:09;8.00;;;7.15;;
24435;SDS011;12616;52.470;13.436;2023-02-28T06:51:37;14.77;;;7.85;;
24435;SDS011;12616;52.470;13.436;2023-02-28T06:54:06;10.85;;;8.77;;
24435;SDS011;12616;52.470;13.436;2023-02-28T06:56:34;11.23;;;8.30;;
24435;SDS011;12616;52.470;13.436;2023-02-28T06:59:05;18.65;;;12.30;;
24435;SDS011;12616;52.470;13.436;2023-02-28T07:01:32;11.68;;;7.93;;
24435;SDS011;12616;52.470;13.436;2023-02-28T07:04:00;9.23;;;7.97;;
24435;SDS011;12616;52.470;13.436;2023-02-28T07:06:27;17.25;;;7.75;;
24435;SDS011;12616;52.470;13.436;2023-02-28T07:08:54;11.50;;;8.05;;
24435;SDS011;12616;52.470;13.436;2023-02-28T07:11:22;10.60;;;8.52;;
24435;SDS011;12616;52.470;13.436;2023-02-28T07:13:51;13.88;;;9.48;;
24435;SDS011;12616;52.470;13.436;2023-02-28T07:16:19;8.15;;;7.32;;
24435;SDS011;12616;52.470;13.436;2023-02-28T07:18:46;11.25;;;8.07;;
24435;SDS011;12616;52.470;13.436;2023-02-28T07:21:13;9.30;;;7.75;;
24435;SDS011;12616;52.470;13.436;2023-02-28T07:23:40;12.88;;;9.13;;
24435;SDS011;12616;52.470;13.436;2023-02-28T07:26:07;10.20;;;8.35;;
24435;SDS011;12616;52.470;13.436;2023-02-28T07:28:39;13.23;;;8.52;;
24435;SDS011;12616;52.470;13.436;2023-02-28T07:31:07;15.40;;;8.70;;
24435;SDS011;12616;52.470;13.436;2023-02-28T07:33:37;15.70;;;9.75;;
24435;SDS011;12616;52.470;13.436;2023-02-28T07:36:05;11.82;;;8.60;;
24435;SDS011;12616;52.470;13.436;2023-02-28T07:38:35;12.55;;;8.60;;
24435;SDS011;12616;52.470;13.436;2023-02-28T07:41:02;11.40;;;8.40;;
24435;SDS011;12616;52.470;13.436;2023-02-28T07:43:30;19.30;;;8.65;;
24435;SDS011;12616;52.470;13.436;2023-02-28T07:46:00;13.90;;;8.55;;
24435;SDS011;12616;52.470;13.436;2023-02-28T07:48:29;15.20;;;9.48;;
24435;SDS011;12616;52.470;13.436;2023-02-28T07:50:57;17.17;;;8.90;;
24435;SDS011;12616;52.470;13.436;2023-02-28T07:53:25;14.15;;;8.40;;
24435;SDS011;12616;52.470;13.436;2023-02-28T07:55:54;11.43;;;8.30;;
24435;SDS011;12616;52.470;13.436;2023-02-28T07:58:21;12.18;;;8.75;;
24435;SDS011;12616;52.470;13.436;2023-02-28T08:00:48;9.38;;;7.38;;
24435;SDS011;12616;52.470;13.436;2023-02-28T08:03:16;12.35;;;8.35;;
24435;SDS011;12616;52.470;13.436;2023-02-28T08:05:43;11.90;;;7.30;;
24435;SDS011;12616;52.470;13.436;2023-02-28T08:08:12;9.10;;;7.60;;
24435;SDS011;12616;52.470;13.436;2023-02-28T08:10:39;8.90;;;5.97;;
24435;SDS011;12616;52.470;13.436;2023-02-28T08:13:05;9.13;;;4.97;;
24435;SDS011;12616;52.470;13.436;2023-02-28T08:15:32;8.15;;;5.10;;
24435;SDS011;12616;52.470;13.436;2023-02-28T08:17:59;6.72;;;4.97;;
24435;SDS011;12616;52.470;13.436;2023-02-28T08:20:26;10.23;;;6.20;;
24435;SDS011;12616;52.470;13.436;2023-02-28T08:22:53;8.23;;;5.47;;
24435;SDS011;12616;52.470;13.436;2023-02-28T08:25:21;7.85;;;5.28;;
24435;SDS011;12616;52.470;13.436;2023-02-28T08:27:50;6.53;;;4.50;;
24435;SDS011;12616;52.470;13.436;2023-02-28T08:30:18;5.47;;;4.40;;
24435;SDS011;12616;52.470;13.436;2023-02-28T08:32:44;7.00;;;5.07;;
24435;SDS011;12616;52.470;13.436;2023-02-28T08:35:11;6.30;;;5.30;;
24435;SDS011;12616;52.470;13.436;2023-02-28T08:37:38;9.07;;;5.68;;
24435;SDS011;12616;52.470;13.436;2023-02-28T08:40:06;11.68;;;5.60;;
24435;SDS011;12616;52.470;13.436;2023-02-28T08:42:35;9.43;;;5.50;;
24435;SDS011;12616;52.470;13.436;2023-02-28T08:45:02;6.47;;;4.63;;
24435;SDS011;12616;52.470;13.436;2023-02-28T08:47:29;8.80;;;4.85;;
24435;SDS011;12616;52.470;13.436;2023-02-28T08:49:56;5.78;;;4.60;;
24435;SDS011;12616;52.470;13.436;2023-02-28T08:52:23;13.52;;;4.93;;
24435;SDS011;12616;52.470;13.436;2023-02-28T08:54:50;4.57;;;3.97;;
24435;SDS011;12616;52.470;13.436;2023-02-28T08:57:17;6.72;;;5.07;;
24435;SDS011;12616;52.470;13.436;2023-02-28T08:59:45;4.90;;;4.45;;
24435;SDS011;12616;52.470;13.436;2023-02-28T09:02:12;14.10;;;4.97;;
24435;SDS011;12616;52.470;13.436;2023-02-28T09:04:39;4.95;;;4.20;;
24435;SDS011;12616;52.470;13.436;2023-02-28T09:07:06;17.25;;;5.80;;
24435;SDS011;12616;52.470;13.436;2023-02-28T09:09:33;5.95;;;4.15;;
24435;SDS011;12616;52.470;13.436;2023-02-28T09:12:00;5.20;;;3.17;;
24435;SDS011;12616;52.470;13.436;2023-02-28T09:14:27;4.38;;;4.05;;
24435;SDS011;12616;52.470;13.436;2023-02-28T09:16:55;4.32;;;3.30;;
24435;SDS011;12616;52.470;13.436;2023-02-28T09:19:22;4.55;;;3.75;;
24435;SDS011;12616;52.470;13.436;2023-02-28T09:21:49;4.28;;;3.75;;
24435;SDS011;12616;52.470;13.436;2023-02-28T09:24:15;6.80;;;3.90;;
24435;SDS011;12616;52.470;13.436;2023-02-28T09:26:43;4.25;;;3.60;;
24435;SDS011;12616;52.470;13.436;2023-02-28T09:29:10;5.00;;;3.50;;
24435;SDS011;12616;52.470;13.436;2023-02-28T09:31:37;6.38;;;3.40;;
24435;SDS011;12616;52.470;13.436;2023-02-28T09:34:05;2.47;;;2.28;;
24435;SDS011;12616;52.470;13.436;2023-02-28T09:36:32;4.50;;;2.63;;
24435;SDS011;12616;52.470;13.436;2023-02-28T09:39:00;2.88;;;2.03;;
24435;SDS011;12616;52.470;13.436;2023-02-28T09:41:27;3.05;;;2.85;;
24435;SDS011;12616;52.470;13.436;2023-02-28T09:44:05;2.50;;;1.85;;
24435;SDS011;12616;52.470;13.436;2023-02-28T09:46:38;3.03;;;2.20;;
24435;SDS011;12616;52.470;13.436;2023-02-28T09:49:12;2.47;;;2.10;;
24435;SDS011;12616;52.470;13.436;2023-02-28T09:51:50;1.90;;;1.80;;
24435;SDS011;12616;52.470;13.436;2023-02-28T09:54:22;3.33;;;2.55;;
24435;SDS011;12616;52.470;13.436;2023-02-28T09:56:51;2.78;;;2.58;;
24435;SDS011;12616;52.470;13.436;2023-02-28T09:59:26;2.85;;;2.33;;
24435;SDS011;12616;52.470;13.436;2023-02-28T10:02:04;2.40;;;2.20;;
24435;SDS011;12616;52.470;13.436;2023-02-28T10:04:44;5.30;;;2.38;;
24435;SDS011;12616;52.470;13.436;2023-02-28T10:07:22;4.00;;;2.50;;
24435;SDS011;12616;52.470;13.436;2023-02-28T10:10:04;6.00;;;3.33;;
24435;SDS011;12616;52.470;13.436;2023-02-28T10:12:40;3.63;;;3.10;;
24435;SDS011;12616;52.470;13.436;2023-02-28T10:15:13;2.63;;;2.42;;
24435;SDS011;12616;52.470;13.436;2023-02-28T10:17:41;3.70;;;2.95;;
24435;SDS011;12616;52.470;13.436;2023-02-28T10:20:13;2.90;;;2.70;;
24435;SDS011;12616;52.470;13.436;2023-02-28T10:22:49;4.47;;;2.90;;
24435;SDS011;12616;52.470;13.436;2023-02-28T10:25:20;3.33;;;3.03;;
24435;SDS011;12616;52.470;13.436;2023-02-28T10:27:49;3.70;;;2.80;;
24435;SDS011;12616;52.470;13.436;2023-02-28T10:30:19;4.15;;;2.85;;
24435;SDS011;12616;52.470;13.436;2023-02-28T10:32:47;4.95;;;3.08;;
24435;SDS011;12616;52.470;13.436;2023-02-28T10:35:20;3.58;;;2.17;;
24435;SDS011;12616;52.470;13.436;2023-02-28T10:37:48;3.47;;;2.67;;
24435;SDS011;12616;52.470;13.436;2023-02-28T10:40:28;2.70;;;2.50;;
24435;SDS011;12616;52.470;13.436;2023-02-28T10:42:59;4.13;;;2.70;;
24435;SDS011;12616;52.470;13.436;2023-02-28T10:45:28;3.28;;;2.50;;
24435;SDS011;12616;52.470;13.436;2023-02-28T10:47:58;3.20;;;2.70;;
24435;SDS011;12616;52.470;13.436;2023-02-28T10:50:29;12.07;;;3.47;;
24435;SDS011;12616;52.470;13.436;2023-02-28T10:53:05;3.05;;;2.33;;
24435;SDS011;12616;52.470;13.436;2023-02-28T10:55:40;3.00;;;2.08;;
24435;SDS011;12616;52.470;13.436;2023-02-28T10:58:18;5.70;;;2.47;;
24435;SDS011;12616;52.470;13.436;2023-02-28T11:00:48;2.83;;;2.40;;
24435;SDS011;12616;52.470;13.436;2023-02-28T11:03:22;3.38;;;2.58;;
24435;SDS011;12616;52.470;13.436;2023-02-28T11:05:52;4.38;;;2.38;;
24435;SDS011;12616;52.470;13.436;2023-02-28T11:08:19;5.82;;;2.55;;
24435;SDS011;12616;52.470;13.436;2023-02-28T11:10:47;3.63;;;2.35;;
24435;SDS011;12616;52.470;13.436;2023-02-28T11:13:20;6.90;;;3.50;;
24435;SDS011;12616;52.470;13.436;2023-02-28T11:15:51;3.55;;;3.25;;
24435;SDS011;12616;52.470;13.436;2023-02-28T11:18:24;5.72;;;3.30;;
24435;SDS011;12616;52.470;13.436;2023-02-28T11:20:57;3.15;;;2.85;;
24435;SDS011;12616;52.470;13.436;2023-02-28T11:23:26;6.45;;;3.65;;
24435;SDS011;12616;52.470;13.436;2023-02-28T11:25:56;4.20;;;3.70;;
24435;SDS011;12616;52.470;13.436;2023-02-28T11:28:28;9.15;;;3.53;;
24435;SDS011;12616;52.470;13.436;2023-02-28T11:31:03;5.55;;;3.45;;
24435;SDS011;12616;52.470;13.436;2023-02-28T11:33:32;5.35;;;3.53;;
24435;SDS011;12616;52.470;13.436;2023-02-28T11:36:11;3.15;;;2.85;;
24435;SDS011;12616;52.470;13.436;2023-02-28T11:38:40;2.70;;;2.50;;
24435;SDS011;12616;52.470;13.436;2023-02-28T11:41:12;4.75;;;4.03;;
24435;SDS011;12616;52.470;13.436;2023-02-28T11:44:10;4.22;;;3.00;;
24435;SDS011;12616;52.470;13.436;2023-02-28T11:46:56;4.75;;;3.50;;
24435;SDS011;12616;52.470;13.436;2023-02-28T11:49:30;5.40;;;3.47;;
24435;SDS011;12616;52.470;13.436;2023-02-28T11:52:04;8.02;;;2.90;;
24435;SDS011;12616;52.470;13.436;2023-02-28T11:54:44;4.88;;;3.65;;
24435;SDS011;12616;52.470;13.436;2023-02-28T11:57:33;4.90;;;3.58;;
24435;SDS011;12616;52.470;13.436;2023-02-28T12:00:14;5.07;;;3.45;;
24435;SDS011;12616;52.470;13.436;2023-02-28T12:02:53;5.05;;;2.83;;
24435;SDS011;12616;52.470;13.436;2023-02-28T12:05:30;4.50;;;3.65;;
24435;SDS011;12616;52.470;13.436;2023-02-28T12:08:06;3.53;;;3.22;;
24435;SDS011;12616;52.470;13.436;2023-02-28T12:10:44;6.47;;;4.90;;
24435;SDS011;12616;52.470;13.436;2023-02-28T12:13:20;3.70;;;3.40;;
24435;SDS011;12616;52.470;13.436;2023-02-28T12:16:03;4.38;;;3.40;;
24435;SDS011;12616;52.470;13.436;2023-02-28T12:18:49;6.20;;;3.60;;
24435;SDS011;12616;52.470;13.436;2023-02-28T12:21:30;6.05;;;3.50;;
24435;SDS011;12616;52.470;13.436;2023-02-28T12:24:17;8.07;;;3.40;;
24435;SDS011;12616;52.470;13.436;2023-02-28T12:26:59;7.13;;;3.70;;
24435;SDS011;12616;52.470;13.436;2023-02-28T12:29:30;5.75;;;4.10;;
24435;SDS011;12616;52.470;13.436;2023-02-28T12:32:01;4.15;;;3.53;;
24435;SDS011;12616;52.470;13.436;2023-02-28T12:34:35;3.72;;;3.47;;
24435;SDS011;12616;52.470;13.436;2023-02-28T12:37:37;2.80;;;2.60;;
24435;SDS011;12616;52.470;13.436;2023-02-28T12:40:11;4.55;;;3.05;;
24435;SDS011;12616;52.470;13.436;2023-02-28T12:42:42;4.00;;;3.30;;
24435;SDS011;12616;52.470;13.436;2023-02-28T12:45:13;5.45;;;3.08;;
24435;SDS011;12616;52.470;13.436;2023-02-28T12:47:45;4.45;;;3.60;;
24435;SDS011;12616;52.470;13.436;2023-02-28T12:50:15;4.78;;;3.50;;
24435;SDS011;12616;52.470;13.436;2023-02-28T12:52:46;6.40;;;3.72;;
24435;SDS011;12616;52.470;13.436;2023-02-28T12:55:21;9.30;;;3.90;;
24435;SDS011;12616;52.470;13.436;2023-02-28T12:57:55;3.47;;;3.25;;
24435;SDS011;12616;52.470;13.436;2023-02-28T13:00:29;7.05;;;3.13;;
24435;SDS011;12616;52.470;13.436;2023-02-28T13:03:08;5.07;;;3.65;;
24435;SDS011;12616;52.470;13.436;2023-02-28T13:06:04;3.00;;;2.58;;
24435;SDS011;12616;52.470;13.436;2023-02-28T13:08:46;3.22;;;2.42;;
24435;SDS011;12616;52.470;13.436;2023-02-28T13:11:28;3.58;;;2.90;;
24435;SDS011;12616;52.470;13.436;2023-02-28T13:13:58;4.65;;;3.13;;
24435;SDS011;12616;52.470;13.436;2023-02-28T13:16:26;8.07;;;3.53;;
24435;SDS011;12616;52.470;13.436;2023-02-28T13:18:56;5.32;;;4.18;;
24435;SDS011;12616;52.470;13.436;2023-02-28T13:44:18;8.30;;;3.90;;
24435;SDS011;12616;52.470;13.436;2023-02-28T13:49:50;5.75;;;3.67;;
24435;SDS011;12616;52.470;13.436;2023-02-28T13:52:18;5.50;;;3.10;;
24435;SDS011;12616;52.470;13.436;2023-02-28T13:58:09;4.82;;;3.25;;
24435;SDS011;12616;52.470;13.436;2023-02-28T14:00:54;3.63;;;3.33;;
24435;SDS011;12616;52.470;13.436;2023-02-28T14:03:35;3.70;;;3.50;;
24435;SDS011;12616;52.470;13.436;2023-02-28T14:06:22;3.65;;;3.03;;
24435;SDS011;12616;52.470;13.436;2023-02-28T14:08:55;7.72;;;3.55;;
24435;SDS011;12616;52.470;13.436;2023-02-28T14:11:26;4.82;;;4.00;;
24435;SDS011;12616;52.470;13.436;2023-02-28T14:13:57;5.38;;;4.07;;
24435;SDS011;12616;52.470;13.436;2023-02-28T14:16:25;3.92;;;3.63;;
24435;SDS011;12616;52.470;13.436;2023-02-28T14:18:56;5.55;;;3.90;;
24435;SDS011;12616;52.470;13.436;2023-02-28T14:21:27;4.85;;;3.42;;
24435;SDS011;12616;52.470;13.436;2023-02-28T14:27:02;3.72;;;3.40;;
24435;SDS011;12616;52.470;13.436;2023-02-28T14:29:42;4.72;;;3.63;;
24435;SDS011;12616;52.470;13.436;2023-02-28T14:32:22;4.03;;;3.60;;
24435;SDS011;12616;52.470;13.436;2023-02-28T14:34:55;4.18;;;3.78;;
24435;SDS011;12616;52.470;13.436;2023-02-28T14:37:29;7.70;;;3.63;;
24435;SDS011;12616;52.470;13.436;2023-02-28T14:39:59;4.90;;;3.88;;
24435;SDS011;12616;52.470;13.436;2023-02-28T14:42:29;3.97;;;3.25;;
24435;SDS011;12616;52.470;13.436;2023-02-28T14:45:00;6.65;;;3.75;;
24435;SDS011;12616;52.470;13.436;2023-02-28T14:47:28;4.00;;;3.70;;
24435;SDS011;12616;52.470;13.436;2023-02-28T14:49:58;5.32;;;3.75;;
24435;SDS011;12616;52.470;13.436;2023-02-28T14:52:26;4.95;;;3.35;;
24435;SDS011;12616;52.470;13.436;2023-02-28T14:54:55;5.50;;;3.65;;
24435;SDS011;12616;52.470;13.436;2023-02-28T14:57:26;6.95;;;4.50;;
24435;SDS011;12616;52.470;13.436;2023-02-28T14:59:58;5.47;;;3.35;;
24435;SDS011;12616;52.470;13.436;2023-02-28T15:02:35;4.10;;;3.28;;
24435;SDS011;12616;52.470;13.436;2023-02-28T15:05:10;12.15;;;3.78;;
24435;SDS011;12616;52.470;13.436;2023-02-28T15:07:48;4.22;;;3.70;;
24435;SDS011;12616;52.470;13.436;2023-02-28T15:10:26;3.88;;;3.50;;
24435;SDS011;12616;52.470;13.436;2023-02-28T15:12:54;7.00;;;4.88;;
24435;SDS011;12616;52.470;13.436;2023-02-28T15:15:25;7.60;;;4.20;;
24435;SDS011;12616;52.470;13.436;2023-02-28T15:18:00;6.15;;;3.60;;
24435;SDS011;12616;52.470;13.436;2023-02-28T15:20:33;5.38;;;3.90;;
24435;SDS011;12616;52.470;13.436;2023-02-28T15:23:01;4.50;;;3.60;;
24435;SDS011;12616;52.470;13.436;2023-02-28T15:25:28;5.22;;;3.65;;
24435;SDS011;12616;52.470;13.436;2023-02-28T15:27:56;7.38;;;4.43;;
24435;SDS011;12616;52.470;13.436;2023-02-28T15:30:25;5.40;;;4.05;;